createdAt,value
2023-04-07T00:00:51.187Z,10.17
2023-04-07T00:01:53.851Z,9.67
2023-04-07T00:02:57.578Z,9.17
2023-04-07T00:04:00.299Z,10.93
2023-04-07T00:05:04.246Z,11.07
2023-04-07T00:06:07.801Z,9.30
2023-04-07T00:07:10.106Z,10.17
2023-04-07T00:08:12.389Z,11.30
2023-04-07T00:09:14.789Z,9.13
2023-04-07T00:10:18.191Z,9.63
2023-04-07T00:11:20.690Z,9.67
2023-04-07T00:12:22.951Z,8.77
2023-04-07T00:13:25.279Z,10.87
2023-04-07T00:14:27.584Z,10.13
2023-04-07T00:15:29.901Z,10.00
2023-04-07T00:16:32.656Z,10.80
2023-04-07T00:17:35.231Z,9.33
2023-04-07T00:18:37.594Z,9.50
2023-04-07T00:19:39.911Z,8.73
2023-04-07T00:20:42.257Z,9.33
2023-04-07T00:21:44.588Z,9.33
2023-04-07T00:22:47.285Z,9.50
2023-04-07T00:23:49.588Z,9.73
2023-04-07T00:24:52.418Z,9.03
2023-04-07T00:25:54.709Z,9.47
2023-04-07T00:26:57.158Z,8.47
2023-04-07T00:28:01.294Z,9.80
2023-04-07T00:29:03.523Z,9.53
2023-04-07T00:30:06.713Z,9.10
2023-04-07T00:31:09.050Z,10.10
2023-04-07T00:32:11.375Z,9.57
2023-04-07T00:33:13.782Z,9.00
2023-04-07T00:34:16.507Z,9.13
2023-04-07T00:35:19.104Z,10.53
2023-04-07T00:36:21.834Z,8.97
2023-04-07T00:37:25.846Z,8.93
2023-04-07T00:38:28.159Z,9.53
2023-04-07T00:39:33.293Z,9.90
2023-04-07T00:40:35.739Z,8.73
2023-04-07T00:41:38.312Z,9.13
2023-04-07T00:42:41.962Z,9.57
2023-04-07T00:43:44.237Z,8.60
2023-04-07T00:44:48.218Z,8.13
2023-04-07T00:45:50.619Z,10.77
2023-04-07T00:46:53.096Z,7.97
2023-04-07T00:47:57.972Z,10.10
2023-04-07T00:49:00.783Z,9.47
2023-04-07T00:50:06.907Z,8.33
2023-04-07T00:51:09.338Z,7.77
2023-04-07T00:52:12.539Z,8.47
2023-04-07T00:53:15.502Z,8.07
2023-04-07T00:54:19.031Z,9.67
2023-04-07T00:55:21.405Z,8.83
2023-04-07T00:56:24.134Z,9.27
2023-04-07T00:57:26.731Z,8.60
2023-04-07T00:58:29.662Z,9.80
2023-04-07T00:59:33.065Z,11.30
2023-04-07T01:00:50.176Z,9.23
2023-04-07T01:02:23.142Z,7.70
2023-04-07T01:03:34.236Z,8.97
2023-04-07T01:04:49.208Z,9.13
2023-04-07T01:05:59.852Z,8.70
2023-04-07T01:07:07.250Z,8.73
2023-04-07T01:08:24.269Z,8.50
2023-04-07T01:09:35.207Z,9.33
2023-04-07T01:11:25.306Z,9.17
2023-04-07T01:13:03.099Z,8.40
2023-04-07T01:14:06.990Z,8.33
2023-04-07T01:15:13.482Z,8.23
2023-04-07T01:16:35.460Z,9.40
2023-04-07T01:17:47.707Z,10.57
2023-04-07T01:18:54.720Z,8.43
2023-04-07T01:20:02.076Z,8.53
2023-04-07T01:21:14.866Z,8.70
2023-04-07T01:22:23.814Z,9.00
2023-04-07T01:23:50.068Z,8.20
2023-04-07T01:25:14.134Z,9.73
2023-04-07T01:26:20.704Z,8.67
2023-04-07T01:32:02.429Z,8.40
2023-04-07T01:33:06.711Z,7.50
2023-04-07T01:34:13.768Z,7.40
2023-04-07T01:35:17.235Z,8.40
2023-04-07T01:36:19.707Z,7.73
2023-04-07T01:37:22.784Z,8.27
2023-04-07T01:38:26.302Z,7.33
2023-04-07T01:39:29.471Z,8.67
2023-04-07T01:40:34.455Z,8.20
2023-04-07T01:41:38.578Z,7.40
2023-04-07T01:42:43.242Z,7.00
2023-04-07T01:43:48.847Z,7.97
2023-04-07T01:44:52.067Z,9.20
2023-04-07T01:45:56.754Z,7.60
2023-04-07T01:47:00.997Z,9.47
2023-04-07T01:48:07.627Z,7.57
2023-04-07T01:49:12.814Z,8.17
2023-04-07T01:50:16.045Z,8.83
2023-04-07T01:51:21.854Z,8.30
2023-04-07T01:52:26.490Z,8.00
2023-04-07T01:53:30.021Z,7.37
2023-04-07T01:54:33.124Z,8.10
2023-04-07T01:55:35.907Z,7.87
2023-04-07T01:56:42.058Z,7.60
2023-04-07T01:57:44.502Z,8.73
2023-04-07T01:58:53.423Z,9.07
2023-04-07T01:59:57.609Z,7.37
2023-04-07T02:01:01.832Z,9.00
2023-04-07T02:02:05.727Z,7.47
2023-04-07T02:03:21.457Z,7.67
2023-04-07T02:04:52.882Z,9.53
2023-04-07T02:05:59.525Z,8.07
2023-04-07T02:07:11.520Z,6.90
2023-04-07T02:08:21.972Z,7.67
2023-04-07T02:09:30.306Z,8.33
2023-04-07T02:10:37.575Z,8.40
2023-04-07T02:11:41.297Z,7.30
2023-04-07T02:12:47.313Z,8.50
2023-04-07T02:13:54.782Z,6.97
2023-04-07T02:14:58.954Z,7.40
2023-04-07T02:16:02.743Z,8.03
2023-04-07T02:17:06.185Z,8.53
2023-04-07T02:18:10.883Z,7.50
2023-04-07T02:19:14.456Z,7.80
2023-04-07T02:20:18.103Z,8.47
2023-04-07T02:21:23.058Z,7.60
2023-04-07T02:22:27.783Z,8.23
2023-04-07T02:23:30.553Z,7.03
2023-04-07T02:24:33.028Z,7.30
2023-04-07T02:27:01.853Z,8.00
2023-04-07T02:28:05.190Z,6.77
2023-04-07T02:29:07.437Z,7.30
2023-04-07T02:30:10.443Z,7.27
2023-04-07T02:31:13.903Z,7.60
2023-04-07T02:32:18.043Z,7.37
2023-04-07T02:33:20.366Z,7.30
2023-04-07T02:34:22.711Z,7.17
2023-04-07T02:35:25.688Z,8.73
2023-04-07T02:36:28.103Z,6.60
2023-04-07T02:37:30.845Z,7.23
2023-04-07T02:38:33.345Z,8.93
2023-04-07T02:39:35.651Z,7.93
2023-04-07T02:40:40.987Z,7.67
2023-04-07T02:41:43.520Z,7.87
2023-04-07T02:42:46.610Z,8.90
2023-04-07T02:43:48.878Z,7.53
2023-04-07T02:44:53.543Z,6.90
2023-04-07T02:45:56.579Z,7.93
2023-04-07T02:46:59.251Z,6.67
2023-04-07T02:48:01.847Z,6.70
2023-04-07T02:49:04.131Z,6.40
2023-04-07T02:50:07.308Z,6.30
2023-04-07T02:51:12.466Z,6.77
2023-04-07T02:52:17.306Z,6.63
2023-04-07T02:53:19.590Z,6.77
2023-04-07T02:54:21.900Z,7.33
2023-04-07T02:55:26.493Z,6.50
2023-04-07T02:56:28.827Z,8.40
2023-04-07T02:57:31.174Z,6.53
2023-04-07T02:59:39.580Z,6.40
2023-04-07T03:00:43.262Z,6.50
2023-04-07T03:01:49.578Z,6.50
2023-04-07T03:02:52.872Z,8.10
2023-04-07T03:03:56.380Z,7.77
2023-04-07T03:05:04.445Z,6.57
2023-04-07T03:06:06.840Z,6.87
2023-04-07T03:07:12.287Z,6.80
2023-04-07T03:08:18.529Z,6.77
2023-04-07T03:09:20.768Z,7.27
2023-04-07T03:10:23.127Z,7.07
2023-04-07T03:11:26.357Z,7.07
2023-04-07T03:12:28.925Z,8.10
2023-04-07T03:13:32.459Z,8.33
2023-04-07T03:14:36.321Z,6.97
2023-04-07T03:15:38.613Z,6.77
2023-04-07T03:16:42.462Z,7.10
2023-04-07T03:17:47.714Z,6.70
2023-04-07T03:18:51.806Z,7.10
2023-04-07T03:19:54.857Z,6.90
2023-04-07T03:20:57.798Z,7.27
2023-04-07T03:22:00.118Z,6.57
2023-04-07T03:23:03.110Z,6.27
2023-04-07T03:24:07.442Z,6.40
2023-04-07T03:25:10.196Z,6.80
2023-04-07T03:26:12.505Z,6.87
2023-04-07T03:27:14.939Z,6.60
2023-04-07T03:28:20.805Z,6.70
2023-04-07T03:29:26.179Z,6.57
2023-04-07T03:30:29.211Z,6.80
2023-04-07T03:31:31.659Z,6.70
2023-04-07T03:32:34.046Z,7.27
2023-04-07T03:33:36.554Z,6.87
2023-04-07T03:34:39.311Z,7.17
2023-04-07T03:35:43.141Z,6.80
2023-04-07T03:36:46.982Z,6.30
2023-04-07T03:37:49.425Z,6.63
2023-04-07T03:38:57.181Z,8.33
2023-04-07T03:39:59.464Z,7.33
2023-04-07T03:41:05.822Z,7.40
2023-04-07T03:42:08.187Z,6.50
2023-04-07T03:43:15.293Z,6.43
2023-04-07T03:44:17.773Z,6.43
2023-04-07T03:45:20.674Z,6.00
2023-04-07T03:46:27.320Z,6.33
2023-04-07T03:47:30.202Z,6.80
2023-04-07T03:48:36.622Z,6.63
2023-04-07T03:49:42.907Z,5.90
2023-04-07T03:50:46.478Z,7.00
2023-04-07T03:51:52.173Z,6.57
2023-04-07T03:52:57.281Z,6.13
2023-04-07T03:54:02.041Z,6.17
2023-04-07T03:55:09.949Z,5.97
2023-04-07T03:56:12.696Z,7.03
2023-04-07T03:57:19.523Z,6.60
2023-04-07T03:58:23.929Z,6.07
2023-04-07T03:59:26.185Z,7.13
2023-04-07T04:00:34.881Z,7.00
2023-04-07T04:01:44.239Z,7.10
2023-04-07T04:02:50.883Z,6.43
2023-04-07T04:03:56.189Z,7.00
2023-04-07T04:05:06.688Z,7.60
2023-04-07T04:06:09.027Z,6.83
2023-04-07T04:07:14.537Z,7.03
2023-04-07T04:08:21.209Z,8.23
2023-04-07T04:09:23.515Z,9.53
2023-04-07T04:10:25.875Z,6.57
2023-04-07T04:11:29.491Z,8.87
2023-04-07T04:12:35.813Z,7.07
2023-04-07T04:13:43.828Z,7.63
2023-04-07T04:14:47.095Z,6.83
2023-04-07T04:15:51.857Z,7.37
2023-04-07T04:16:55.070Z,6.87
2023-04-07T04:18:06.331Z,7.63
2023-04-07T04:19:09.477Z,7.83
2023-04-07T04:20:11.969Z,7.83
2023-04-07T04:21:19.672Z,7.27
2023-04-07T04:22:22.644Z,6.90
2023-04-07T04:23:31.013Z,6.17
2023-04-07T04:24:34.285Z,7.27
2023-04-07T04:25:39.897Z,7.90
2023-04-07T04:26:46.588Z,6.20
2023-04-07T04:27:51.534Z,5.77
2023-04-07T04:28:58.496Z,6.10
2023-04-07T04:30:01.238Z,6.37
2023-04-07T04:31:11.039Z,6.60
2023-04-07T04:32:18.495Z,6.40
2023-04-07T04:33:21.016Z,6.00
2023-04-07T04:34:30.077Z,6.30
2023-04-07T04:35:32.883Z,7.40
2023-04-07T04:36:50.396Z,6.70
2023-04-07T04:37:54.800Z,6.53
2023-04-07T04:38:57.156Z,5.93
2023-04-07T04:39:59.581Z,6.23
2023-04-07T04:41:01.889Z,7.03
2023-04-07T04:42:06.708Z,7.83
2023-04-07T04:43:11.615Z,5.77
2023-04-07T04:44:15.785Z,6.20
2023-04-07T04:45:18.562Z,6.20
2023-04-07T04:46:23.296Z,6.47
2023-04-07T04:47:26.531Z,6.23
2023-04-07T04:48:28.807Z,6.20
2023-04-07T04:49:32.925Z,6.30
2023-04-07T04:50:38.043Z,6.67
2023-04-07T04:51:47.155Z,6.73
2023-04-07T04:52:58.134Z,6.40
2023-04-07T04:54:00.818Z,6.23
2023-04-07T04:55:03.516Z,5.73
2023-04-07T04:56:06.382Z,6.60
2023-04-07T04:57:14.277Z,5.83
2023-04-07T04:58:16.686Z,6.13
2023-04-07T04:59:23.978Z,5.87
2023-04-07T05:00:32.169Z,6.63
2023-04-07T05:01:38.421Z,6.30
2023-04-07T05:02:44.764Z,6.87
2023-04-07T05:03:47.278Z,6.87
2023-04-07T05:04:55.185Z,6.63
2023-04-07T05:06:00.951Z,7.93
2023-04-07T05:07:04.113Z,6.77
2023-04-07T05:08:11.246Z,6.13
2023-04-07T05:09:16.125Z,6.13
2023-04-07T05:10:21.388Z,8.73
2023-04-07T05:11:26.172Z,6.43
2023-04-07T05:12:30.857Z,6.63
2023-04-07T05:13:36.794Z,5.97
2023-04-07T05:14:40.030Z,5.83
2023-04-07T05:15:44.116Z,7.17
2023-04-07T05:16:48.720Z,5.97
2023-04-07T05:17:55.773Z,6.37
2023-04-07T05:19:01.958Z,7.40
2023-04-07T05:20:04.795Z,6.83
2023-04-07T05:21:16.047Z,5.83
2023-04-07T05:22:18.461Z,7.03
2023-04-07T05:23:23.316Z,6.83
2023-04-07T05:24:29.550Z,7.80
2023-04-07T05:25:35.967Z,6.47
2023-04-07T05:26:40.818Z,6.03
2023-04-07T05:27:44.189Z,5.60
2023-04-07T05:28:50.331Z,9.53
2023-04-07T05:29:56.194Z,6.80
2023-04-07T05:31:07.514Z,8.80
2023-04-07T05:32:11.184Z,7.33
2023-04-07T05:33:17.089Z,6.40
2023-04-07T05:34:26.128Z,6.57
2023-04-07T05:35:30.832Z,6.50
2023-04-07T05:36:35.934Z,6.90
2023-04-07T05:37:41.889Z,6.37
2023-04-07T05:38:45.308Z,6.90
2023-04-07T05:39:51.520Z,6.93
2023-04-07T05:40:53.965Z,7.80
2023-04-07T05:42:02.354Z,7.87
2023-04-07T05:43:04.883Z,6.83
2023-04-07T05:44:09.149Z,6.33
2023-04-07T05:45:15.229Z,6.67
2023-04-07T05:46:21.528Z,7.43
2023-04-07T05:47:28.697Z,7.03
2023-04-07T05:48:32.880Z,8.00
2023-04-07T05:49:35.933Z,6.20
2023-04-07T05:50:41.919Z,6.67
2023-04-07T05:51:49.117Z,8.10
2023-04-07T05:52:51.655Z,8.30
2023-04-07T05:54:02.628Z,6.63
2023-04-07T05:55:06.364Z,8.10
2023-04-07T05:56:08.844Z,6.37
2023-04-07T05:57:21.750Z,7.63
2023-04-07T05:58:26.425Z,8.00
2023-04-07T05:59:30.567Z,6.60
2023-04-07T06:00:32.882Z,8.03
2023-04-07T06:01:44.862Z,7.50
2023-04-07T06:02:47.448Z,7.17
2023-04-07T06:03:54.145Z,6.73
2023-04-07T06:04:59.492Z,8.03
2023-04-07T06:06:02.066Z,6.90
2023-04-07T06:07:04.989Z,7.90
2023-04-07T06:08:07.621Z,6.53
2023-04-07T06:09:10.488Z,6.43
2023-04-07T06:10:13.036Z,6.07
2023-04-07T06:11:16.874Z,7.87
2023-04-07T06:12:19.228Z,7.07
2023-04-07T06:13:21.615Z,8.17
2023-04-07T06:14:24.905Z,6.63
2023-04-07T06:15:27.593Z,9.53
2023-04-07T06:16:29.989Z,6.70
2023-04-07T06:17:35.610Z,6.67
2023-04-07T06:18:37.941Z,7.43
2023-04-07T06:19:41.954Z,6.60
2023-04-07T06:20:44.196Z,6.97
2023-04-07T06:21:46.523Z,6.33
2023-04-07T06:22:49.176Z,8.97
2023-04-07T06:23:51.944Z,7.07
2023-04-07T06:24:55.365Z,6.63
2023-04-07T06:25:59.927Z,7.13
2023-04-07T06:27:04.175Z,8.20
2023-04-07T06:28:06.622Z,8.67
2023-04-07T06:29:09.223Z,7.00
2023-04-07T06:30:12.063Z,8.73
2023-04-07T06:31:14.453Z,8.00
2023-04-07T06:32:17.401Z,7.80
2023-04-07T06:33:24.113Z,7.00
2023-04-07T06:34:26.435Z,10.30
2023-04-07T06:35:30.656Z,8.53
2023-04-07T06:36:34.841Z,9.20
2023-04-07T06:37:37.863Z,8.37
2023-04-07T06:38:42.120Z,7.37
2023-04-07T06:39:44.462Z,7.00
2023-04-07T06:40:46.809Z,7.33
2023-04-07T06:41:49.131Z,8.60
2023-04-07T06:42:52.189Z,9.30
2023-04-07T06:44:03.890Z,10.30
2023-04-07T06:45:06.739Z,11.10
2023-04-07T06:46:10.320Z,8.27
2023-04-07T06:47:14.154Z,8.20
2023-04-07T06:48:16.944Z,7.73
2023-04-07T06:49:20.067Z,8.77
2023-04-07T06:50:22.788Z,8.33
2023-04-07T06:51:25.108Z,7.83
2023-04-07T06:52:28.412Z,7.07
2023-04-07T06:53:30.826Z,7.47
2023-04-07T06:54:33.254Z,7.10
2023-04-07T06:55:36.665Z,8.40
2023-04-07T06:56:39.402Z,7.30
2023-04-07T06:57:41.807Z,7.30
2023-04-07T06:58:44.114Z,8.20
2023-04-07T06:59:46.377Z,8.57
2023-04-07T07:00:51.559Z,7.70
2023-04-07T07:01:55.058Z,7.73
2023-04-07T07:02:57.960Z,8.80
2023-04-07T07:04:06.221Z,8.40
2023-04-07T07:05:14.116Z,8.67
2023-04-07T07:06:18.892Z,7.77
2023-04-07T07:07:21.554Z,8.03
2023-04-07T07:08:25.800Z,7.70
2023-04-07T07:09:28.108Z,8.57
2023-04-07T07:10:31.101Z,7.50
2023-04-07T07:11:33.640Z,7.67
2023-04-07T07:12:36.214Z,7.80
2023-04-07T07:13:40.434Z,8.03
2023-04-07T07:14:42.686Z,6.97
2023-04-07T07:15:45.288Z,8.13
2023-04-07T07:16:47.871Z,7.23
2023-04-07T07:17:50.200Z,7.73
2023-04-07T07:18:54.057Z,8.07
2023-04-07T07:19:57.211Z,7.60
2023-04-07T07:21:00.654Z,7.57
2023-04-07T07:22:04.523Z,7.80
2023-04-07T07:23:07.323Z,9.13
2023-04-07T07:24:10.118Z,8.73
2023-04-07T07:25:15.004Z,7.82
2023-04-07T07:26:17.699Z,8.48
2023-04-07T07:27:20.859Z,7.28
2023-04-07T07:28:23.961Z,7.25
2023-04-07T07:29:26.317Z,8.30
2023-04-07T07:30:28.699Z,8.15
2023-04-07T07:31:31.734Z,7.78
2023-04-07T07:32:35.633Z,9.18
2023-04-07T07:33:40.674Z,7.85
2023-04-07T07:34:43.002Z,7.85
2023-04-07T07:35:45.290Z,8.45
2023-04-07T07:36:47.640Z,8.60
2023-04-07T07:37:49.921Z,9.10
2023-04-07T07:38:52.614Z,7.47
2023-04-07T07:39:55.334Z,8.07
2023-04-07T07:40:59.842Z,8.18
2023-04-07T07:42:02.144Z,7.68
2023-04-07T07:43:07.057Z,7.95
2023-04-07T07:44:15.580Z,8.35
2023-04-07T07:45:19.791Z,8.00
2023-04-07T07:46:24.571Z,9.90
2023-04-07T07:47:27.096Z,8.55
2023-04-07T07:48:31.348Z,8.13
2023-04-07T07:49:35.232Z,7.60
2023-04-07T07:50:37.909Z,7.38
2023-04-07T07:51:40.620Z,9.15
2023-04-07T07:52:43.641Z,9.18
2023-04-07T07:53:46.907Z,7.63
2023-04-07T07:54:51.683Z,8.45
2023-04-07T07:55:56.339Z,8.55
2023-04-07T07:57:00.292Z,7.95
2023-04-07T07:58:02.671Z,8.38
2023-04-07T07:59:10.127Z,9.82
2023-04-07T08:00:13.654Z,7.95
2023-04-07T08:01:16.156Z,8.02
2023-04-07T08:02:18.875Z,7.88
2023-04-07T08:03:26.337Z,9.20
2023-04-07T08:04:28.702Z,8.00
2023-04-07T08:05:31.288Z,9.15
2023-04-07T08:06:33.717Z,7.90
2023-04-07T08:07:36.827Z,8.60
2023-04-07T08:08:39.283Z,9.20
2023-04-07T08:09:41.775Z,7.30
2023-04-07T08:10:44.095Z,8.02
2023-04-07T08:11:48.552Z,9.27
2023-04-07T08:12:52.874Z,7.70
2023-04-07T08:13:55.976Z,8.80
2023-04-07T08:14:58.485Z,9.23
2023-04-07T08:16:03.265Z,7.90
2023-04-07T08:17:06.889Z,10.82
2023-04-07T08:18:09.331Z,8.43
2023-04-07T08:19:12.705Z,8.00
2023-04-07T08:20:14.992Z,9.30
2023-04-07T08:21:17.292Z,8.43
2023-04-07T08:22:23.398Z,12.55
2023-04-07T08:23:26.069Z,8.57
2023-04-07T08:24:31.289Z,7.90
2023-04-07T08:25:36.778Z,7.80
2023-04-07T08:26:39.101Z,7.43
2023-04-07T08:27:41.410Z,9.52
2023-04-07T08:28:43.754Z,8.27
2023-04-07T08:29:46.077Z,10.20
2023-04-07T08:30:48.844Z,9.85
2023-04-07T08:31:51.316Z,7.70
2023-04-07T08:32:53.771Z,9.13
2023-04-07T08:33:58.188Z,8.98
2023-04-07T08:35:00.563Z,9.55
2023-04-07T08:36:02.885Z,9.20
2023-04-07T08:37:05.236Z,9.25
2023-04-07T08:38:09.256Z,12.27
2023-04-07T08:39:11.566Z,10.63
2023-04-07T08:40:14.186Z,9.57
2023-04-07T08:41:38.955Z,11.02
2023-04-07T08:42:44.048Z,11.00
2023-04-07T08:43:49.813Z,9.25
2023-04-07T08:44:54.073Z,8.73
2023-04-07T08:45:57.991Z,8.20
2023-04-07T08:47:02.079Z,9.45
2023-04-07T08:48:11.287Z,8.48
2023-04-07T08:49:15.348Z,8.90
2023-04-07T08:50:19.459Z,8.93
2023-04-07T08:51:32.050Z,7.68
2023-04-07T08:52:46.735Z,8.38
2023-04-07T08:53:51.897Z,10.70
2023-04-07T08:54:57.655Z,8.07
2023-04-07T08:56:02.072Z,9.80
2023-04-07T08:57:05.507Z,8.73
2023-04-07T08:58:12.664Z,8.13
2023-04-07T08:59:16.321Z,8.95
2023-04-07T09:00:19.252Z,8.48
2023-04-07T09:01:21.806Z,9.23
2023-04-07T09:02:25.343Z,7.45
2023-04-07T09:03:28.355Z,7.57
2023-04-07T09:04:30.908Z,7.10
2023-04-07T09:05:34.439Z,7.55
2023-04-07T09:06:38.174Z,7.68
2023-04-07T09:07:45.238Z,9.20
2023-04-07T09:08:47.561Z,9.25
2023-04-07T09:09:52.906Z,8.60
2023-04-07T09:10:57.576Z,8.95
2023-04-07T09:12:00.080Z,8.80
2023-04-07T09:13:03.798Z,9.88
2023-04-07T09:14:06.200Z,8.70
2023-04-07T09:15:13.977Z,7.63
2023-04-07T09:16:19.405Z,7.53
2023-04-07T09:17:22.261Z,7.15
2023-04-07T09:18:28.228Z,9.00
2023-04-07T09:19:31.114Z,8.32
2023-04-07T09:20:58.952Z,7.07
2023-04-07T09:22:01.262Z,7.50
2023-04-07T09:23:03.903Z,7.13
2023-04-07T09:24:21.804Z,8.00
2023-04-07T09:25:27.754Z,6.88
2023-04-07T09:26:31.870Z,7.15
2023-04-07T09:27:34.400Z,7.53
2023-04-07T09:28:43.962Z,6.13
2023-04-07T09:29:49.230Z,9.50
2023-04-07T09:30:55.693Z,9.57
2023-04-07T09:31:59.412Z,10.25
2023-04-07T09:33:03.826Z,9.10
2023-04-07T09:34:24.971Z,8.57
2023-04-07T09:35:30.150Z,8.10
2023-04-07T09:36:43.227Z,8.43
2023-04-07T09:38:02.168Z,9.50
2023-04-07T09:39:08.871Z,8.35
2023-04-07T09:40:12.371Z,7.75
2023-04-07T09:41:19.491Z,9.52
2023-04-07T09:42:22.622Z,7.15
2023-04-07T09:43:25.270Z,7.28
2023-04-07T09:44:27.544Z,6.93
2023-04-07T09:45:35.740Z,8.38
2023-04-07T09:46:56.985Z,7.30
2023-04-07T09:47:59.443Z,8.63
2023-04-07T09:49:07.667Z,7.30
2023-04-07T09:50:11.624Z,6.57
2023-04-07T09:51:16.741Z,8.13
2023-04-07T09:52:20.894Z,7.97
2023-04-07T09:53:42.529Z,6.90
2023-04-07T09:54:45.589Z,6.90
2023-04-07T09:55:48.812Z,7.90
2023-04-07T09:56:51.232Z,8.70
2023-04-07T09:57:55.743Z,6.57
2023-04-07T09:58:58.271Z,6.00
2023-04-07T10:00:01.312Z,6.63
2023-04-07T10:01:08.513Z,6.07
2023-04-07T10:02:15.345Z,6.53
2023-04-07T10:03:18.222Z,7.28
2023-04-07T10:04:23.525Z,6.65
2023-04-07T10:05:27.065Z,7.00
2023-04-07T10:06:31.189Z,7.38
2023-04-07T10:07:33.576Z,5.82
2023-04-07T10:08:38.946Z,6.80
2023-04-07T10:09:41.703Z,7.50
2023-04-07T10:10:44.479Z,6.88
2023-04-07T10:11:47.557Z,7.75
2023-04-07T10:12:52.562Z,6.63
2023-04-07T10:13:56.036Z,7.88
2023-04-07T10:15:00.640Z,6.72
2023-04-07T10:16:10.210Z,6.40
2023-04-07T10:17:21.450Z,6.95
2023-04-07T10:18:29.904Z,6.30
2023-04-07T10:19:39.457Z,6.97
2023-04-07T10:20:42.474Z,6.07
2023-04-07T10:21:47.984Z,6.85
2023-04-07T10:22:55.455Z,8.80
2023-04-07T10:24:20.083Z,6.18
2023-04-07T10:25:24.635Z,6.03
2023-04-07T10:26:31.495Z,5.88
2023-04-07T10:27:51.746Z,5.85
2023-04-07T10:29:03.022Z,6.15
2023-04-07T10:30:12.411Z,5.30
2023-04-07T10:31:15.306Z,5.78
2023-04-07T10:32:17.770Z,7.45
2023-04-07T10:33:47.986Z,7.82
2023-04-07T10:34:58.217Z,6.65
2023-04-07T10:36:05.610Z,6.53
2023-04-07T10:37:17.355Z,6.00
2023-04-07T10:38:19.875Z,5.65
2023-04-07T10:39:25.298Z,6.13
2023-04-07T10:40:29.894Z,5.90
2023-04-07T10:41:37.579Z,6.03
2023-04-07T10:42:39.947Z,7.85
2023-04-07T10:43:44.374Z,5.90
2023-04-07T10:44:48.518Z,6.75
2023-04-07T10:45:54.568Z,5.65
2023-04-07T10:47:00.807Z,6.28
2023-04-07T10:48:04.119Z,6.45
2023-04-07T10:49:10.667Z,5.78
2023-04-07T10:50:22.996Z,6.40
2023-04-07T10:51:25.290Z,5.93
2023-04-07T10:52:27.623Z,7.05
2023-04-07T10:53:35.186Z,5.85
2023-04-07T10:54:38.069Z,5.80
2023-04-07T10:55:45.064Z,6.35
2023-04-07T10:57:02.961Z,5.75
2023-04-07T10:58:29.408Z,6.97
2023-04-07T10:59:33.470Z,6.15
2023-04-07T11:00:37.161Z,6.22
2023-04-07T11:01:40.624Z,7.03
2023-04-07T11:02:43.647Z,7.38
2023-04-07T11:03:58.190Z,5.80
2023-04-07T11:05:00.821Z,5.65
2023-04-07T11:06:06.506Z,6.43
2023-04-07T11:07:09.501Z,5.43
2023-04-07T11:08:12.961Z,5.22
2023-04-07T11:09:20.289Z,6.05
2023-04-07T11:10:23.477Z,6.43
2023-04-07T11:11:38.584Z,5.63
2023-04-07T11:12:43.931Z,5.22
2023-04-07T11:13:51.353Z,4.60
2023-04-07T11:14:54.433Z,6.20
2023-04-07T11:15:56.954Z,5.65
2023-04-07T11:17:01.671Z,6.15
2023-04-07T11:18:21.647Z,5.27
2023-04-07T11:19:25.432Z,6.18
2023-04-07T11:20:42.019Z,5.75
2023-04-07T11:21:45.778Z,5.70
2023-04-07T11:23:00.844Z,8.73
2023-04-07T11:24:03.261Z,6.50
2023-04-07T11:25:20.958Z,7.38
2023-04-07T11:26:23.855Z,5.95
2023-04-07T11:27:27.490Z,5.67
2023-04-07T11:28:31.165Z,6.53
2023-04-07T11:29:34.466Z,5.38
2023-04-07T11:30:37.039Z,4.80
2023-04-07T11:31:40.969Z,5.93
2023-04-07T11:32:47.882Z,6.85
2023-04-07T11:34:02.072Z,5.20
2023-04-07T11:35:08.346Z,5.85
2023-04-07T11:36:11.466Z,5.25
2023-04-07T11:37:25.320Z,5.90
2023-04-07T11:38:39.241Z,6.15
2023-04-07T11:39:43.008Z,5.25
2023-04-07T11:40:47.942Z,5.18
2023-04-07T11:41:51.367Z,5.57
2023-04-07T11:42:53.698Z,5.05
2023-04-07T11:44:10.666Z,5.47
2023-04-07T11:45:20.910Z,8.45
2023-04-07T11:46:28.253Z,5.30
2023-04-07T11:47:35.575Z,5.53
2023-04-07T11:48:42.560Z,6.80
2023-04-07T11:49:46.586Z,7.93
2023-04-07T11:50:49.228Z,17.77
2023-04-07T11:52:03.647Z,14.18
2023-04-07T11:53:06.108Z,6.85
2023-04-07T11:54:08.525Z,5.75
2023-04-07T11:55:24.759Z,6.18
2023-04-07T11:56:31.165Z,6.30
2023-04-07T11:57:33.440Z,6.22
2023-04-07T11:58:40.048Z,5.47
2023-04-07T11:59:42.968Z,6.00
2023-04-07T12:00:59.544Z,5.35
2023-04-07T12:02:02.294Z,5.82
2023-04-07T12:03:16.388Z,5.53
2023-04-07T12:04:19.779Z,5.25
2023-04-07T12:05:22.607Z,5.30
2023-04-07T12:06:29.349Z,5.30
2023-04-07T12:07:31.764Z,5.15
2023-04-07T12:08:38.946Z,6.72
2023-04-07T12:09:41.263Z,5.25
2023-04-07T12:10:46.024Z,6.30
2023-04-07T12:11:51.407Z,7.05
2023-04-07T12:12:56.374Z,7.07
2023-04-07T12:14:02.345Z,6.90
2023-04-07T12:15:05.020Z,6.65
2023-04-07T12:16:09.070Z,7.00
2023-04-07T12:17:25.827Z,6.25
2023-04-07T12:18:29.176Z,7.00
2023-04-07T12:19:36.401Z,6.32
2023-04-07T12:20:39.975Z,6.22
2023-04-07T12:21:44.066Z,8.20
2023-04-07T12:22:47.500Z,6.45
2023-04-07T12:23:51.345Z,6.60
2023-04-07T12:24:54.769Z,6.15
2023-04-07T12:25:58.518Z,6.05
2023-04-07T12:27:07.424Z,6.93
2023-04-07T12:28:13.896Z,6.30
2023-04-07T12:29:17.753Z,7.13
2023-04-07T12:30:20.426Z,7.07
2023-04-07T12:31:22.804Z,5.93
2023-04-07T12:32:27.532Z,6.60
2023-04-07T12:33:30.214Z,7.22
2023-04-07T12:34:32.895Z,7.68
2023-04-07T12:35:35.769Z,7.57
2023-04-07T12:36:38.405Z,8.30
2023-04-07T12:37:40.998Z,8.95
2023-04-07T12:38:43.349Z,7.97
2023-04-07T12:39:45.970Z,8.02
2023-04-07T12:40:49.661Z,8.18
2023-04-07T12:41:54.395Z,7.20
2023-04-07T12:43:01.894Z,7.53
2023-04-07T12:44:07.749Z,7.00
2023-04-07T12:45:11.110Z,6.97
2023-04-07T12:46:17.038Z,7.88
2023-04-07T12:47:19.489Z,8.75
2023-04-07T12:48:22.490Z,7.68
2023-04-07T12:49:28.874Z,7.93
2023-04-07T12:50:31.970Z,10.98
2023-04-07T12:51:35.592Z,8.43
2023-04-07T12:52:37.917Z,8.55
2023-04-07T12:53:40.317Z,8.35
2023-04-07T12:54:44.592Z,8.13
2023-04-07T12:55:50.329Z,8.05
2023-04-07T12:56:53.046Z,7.28
2023-04-07T12:57:59.783Z,8.50
2023-04-07T12:59:02.369Z,7.72
2023-04-07T13:00:07.074Z,8.85
2023-04-07T13:01:11.955Z,7.22
2023-04-07T13:02:18.447Z,7.75
2023-04-07T13:03:22.016Z,7.93
2023-04-07T13:04:26.804Z,8.18
2023-04-07T13:05:30.758Z,7.75
2023-04-07T13:06:33.875Z,8.88
2023-04-07T13:07:38.514Z,8.23
2023-04-07T13:08:41.372Z,8.30
2023-04-07T13:09:45.096Z,7.95
2023-04-07T13:10:47.552Z,8.15
2023-04-07T13:11:49.828Z,7.82
2023-04-07T13:12:55.427Z,7.68
2023-04-07T13:13:59.794Z,7.63
2023-04-07T13:15:05.363Z,6.95
2023-04-07T13:16:08.432Z,7.82
2023-04-07T13:17:13.028Z,10.27
2023-04-07T13:18:16.910Z,9.45
2023-04-07T13:19:19.176Z,7.25
2023-04-07T13:20:23.462Z,8.27
2023-04-07T13:22:35.700Z,8.15
2023-04-07T13:23:43.182Z,8.90
2023-04-07T13:24:47.925Z,9.02
2023-04-07T13:25:50.735Z,8.18
2023-04-07T13:26:55.212Z,7.25
2023-04-07T13:28:01.033Z,7.50
2023-04-07T13:29:03.327Z,9.02
2023-04-07T13:30:06.399Z,6.32
2023-04-07T13:31:12.085Z,6.55
2023-04-07T13:32:17.278Z,7.60
2023-04-07T13:33:22.411Z,7.85
2023-04-07T13:34:25.042Z,6.88
2023-04-07T13:35:27.624Z,7.50
2023-04-07T13:36:30.872Z,8.60
2023-04-07T13:37:33.154Z,6.97
2023-04-07T13:38:35.702Z,6.72
2023-04-07T13:39:41.180Z,7.38
2023-04-07T13:40:47.614Z,7.90
2023-04-07T13:41:50.682Z,7.50
2023-04-07T13:42:53.060Z,6.32
2023-04-07T13:43:57.914Z,7.13
2023-04-07T13:45:02.594Z,8.55
2023-04-07T13:46:17.160Z,8.15
2023-04-07T13:47:33.064Z,8.45
2023-04-07T13:48:35.597Z,7.13
2023-04-07T13:49:38.393Z,7.90
2023-04-07T13:50:42.514Z,7.50
2023-04-07T13:51:50.061Z,6.63
2023-04-07T13:52:55.237Z,6.33
2023-04-07T13:53:57.759Z,7.80
2023-04-07T13:55:00.155Z,7.93
2023-04-07T13:56:04.861Z,7.70
2023-04-07T13:57:07.383Z,8.40
2023-04-07T13:58:10.179Z,8.13
2023-04-07T13:59:15.848Z,6.80
2023-04-07T14:00:19.679Z,7.37
2023-04-07T14:01:22.350Z,7.72
2023-04-07T14:02:30.108Z,8.50
2023-04-07T14:03:38.246Z,7.40
2023-04-07T14:04:40.827Z,6.87
2023-04-07T14:05:46.555Z,6.85
2023-04-07T14:06:49.158Z,6.93
2023-04-07T14:07:51.714Z,8.27
2023-04-07T14:08:54.276Z,8.15
2023-04-07T14:10:02.036Z,8.30
2023-04-07T14:11:07.696Z,7.97
2023-04-07T14:12:10.674Z,8.73
2023-04-07T14:13:17.572Z,8.90
2023-04-07T14:14:20.475Z,7.37
2023-04-07T14:15:25.515Z,8.10
2023-04-07T14:16:28.869Z,8.00
2023-04-07T14:17:32.107Z,7.63
2023-04-07T14:18:34.662Z,7.60
2023-04-07T14:19:37.405Z,10.07
2023-04-07T14:20:41.500Z,8.77
2023-04-07T14:21:44.590Z,7.37
2023-04-07T14:22:48.900Z,7.07
2023-04-07T14:23:52.169Z,8.83
2023-04-07T14:24:55.786Z,7.30
2023-04-07T14:26:00.175Z,7.67
2023-04-07T14:27:09.943Z,7.50
2023-04-07T14:28:18.932Z,7.23
2023-04-07T14:29:22.497Z,8.00
2023-04-07T14:30:27.880Z,8.73
2023-04-07T14:31:30.541Z,8.38
2023-04-07T14:32:34.772Z,9.50
2023-04-07T14:33:37.209Z,10.20
2023-04-07T14:34:39.498Z,7.83